sensor_id;sensor_type;location;lat;lon;timestamp;temperature;humidity
21255;DHT22;10785;50.674;17.954;2024-03-06T00:00:31;3.60;1.00
21255;DHT22;10785;50.674;17.954;2024-03-06T00:03:11;3.60;1.00
21255;DHT22;10785;50.674;17.954;2024-03-06T00:06:00;4.00;1.00
21255;DHT22;10785;50.674;17.954;2024-03-06T00:08:49;3.70;1.00
21255;DHT22;10785;50.674;17.954;2024-03-06T00:11:36;3.60;1.00
21255;DHT22;10785;50.674;17.954;2024-03-06T00:14:20;4.30;1.00
21255;DHT22;10785;50.674;17.954;2024-03-06T00:17:05;3.80;1.00
21255;DHT22;10785;50.674;17.954;2024-03-06T00:19:53;3.90;1.00
21255;DHT22;10785;50.674;17.954;2024-03-06T00:22:41;3.70;1.00
21255;DHT22;10785;50.674;17.954;2024-03-06T00:25:29;3.60;1.00
21255;DHT22;10785;50.674;17.954;2024-03-06T00:28:11;3.70;1.00
21255;DHT22;10785;50.674;17.954;2024-03-06T00:31:02;3.70;1.00
21255;DHT22;10785;50.674;17.954;2024-03-06T00:33:37;3.60;1.00
21255;DHT22;10785;50.674;17.954;2024-03-06T00:36:14;3.70;1.00
21255;DHT22;10785;50.674;17.954;2024-03-06T00:38:59;3.80;1.00
21255;DHT22;10785;50.674;17.954;2024-03-06T00:41:48;3.60;1.00
21255;DHT22;10785;50.674;17.954;2024-03-06T00:44:24;3.60;1.00
21255;DHT22;10785;50.674;17.954;2024-03-06T00:47:14;4.30;1.00
21255;DHT22;10785;50.674;17.954;2024-03-06T00:49:56;3.60;1.00
21255;DHT22;10785;50.674;17.954;2024-03-06T00:52:35;3.70;1.00
21255;DHT22;10785;50.674;17.954;2024-03-06T00:55:31;3.80;1.00
21255;DHT22;10785;50.674;17.954;2024-03-06T00:58:16;3.80;1.00
21255;DHT22;10785;50.674;17.954;2024-03-06T01:01:00;3.80;1.00
21255;DHT22;10785;50.674;17.954;2024-03-06T01:03:50;3.70;1.00
21255;DHT22;10785;50.674;17.954;2024-03-06T01:06:30;4.20;1.00
21255;DHT22;10785;50.674;17.954;2024-03-06T01:09:21;3.80;1.00
21255;DHT22;10785;50.674;17.954;2024-03-06T01:12:07;3.70;1.00
21255;DHT22;10785;50.674;17.954;2024-03-06T01:14:52;3.90;6.40
21255;DHT22;10785;50.674;17.954;2024-03-06T01:17:37;3.80;6.30
21255;DHT22;10785;50.674;17.954;2024-03-06T01:20:17;3.90;26.60
21255;DHT22;10785;50.674;17.954;2024-03-06T01:22:48;3.90;58.50
21255;DHT22;10785;50.674;17.954;2024-03-06T01:25:24;3.60;40.80
21255;DHT22;10785;50.674;17.954;2024-03-06T01:28:09;3.90;58.00
21255;DHT22;10785;50.674;17.954;2024-03-06T01:30:52;3.50;50.70
21255;DHT22;10785;50.674;17.954;2024-03-06T01:33:34;3.80;86.80
21255;DHT22;10785;50.674;17.954;2024-03-06T01:36:26;3.50;98.80
21255;DHT22;10785;50.674;17.954;2024-03-06T01:39:06;3.70;99.90
21255;DHT22;10785;50.674;17.954;2024-03-06T01:41:48;3.70;99.90
21255;DHT22;10785;50.674;17.954;2024-03-06T01:44:36;3.50;99.90
21255;DHT22;10785;50.674;17.954;2024-03-06T01:47:14;4.00;99.90
21255;DHT22;10785;50.674;17.954;2024-03-06T01:49:59;3.60;99.90
21255;DHT22;10785;50.674;17.954;2024-03-06T01:52:47;3.50;99.90
21255;DHT22;10785;50.674;17.954;2024-03-06T01:55:32;3.70;99.90
21255;DHT22;10785;50.674;17.954;2024-03-06T01:58:22;3.60;99.90
21255;DHT22;10785;50.674;17.954;2024-03-06T02:01:12;4.00;99.90
21255;DHT22;10785;50.674;17.954;2024-03-06T02:03:45;4.10;99.90
21255;DHT22;10785;50.674;17.954;2024-03-06T02:06:34;4.00;99.90
21255;DHT22;10785;50.674;17.954;2024-03-06T02:09:20;3.60;99.90
21255;DHT22;10785;50.674;17.954;2024-03-06T02:11:58;3.70;99.90
21255;DHT22;10785;50.674;17.954;2024-03-06T02:14:36;3.50;99.90
21255;DHT22;10785;50.674;17.954;2024-03-06T02:17:22;4.30;99.90
21255;DHT22;10785;50.674;17.954;2024-03-06T02:20:02;3.50;99.90
21255;DHT22;10785;50.674;17.954;2024-03-06T02:22:46;3.50;99.90
21255;DHT22;10785;50.674;17.954;2024-03-06T02:25:26;3.40;99.90
21255;DHT22;10785;50.674;17.954;2024-03-06T02:28:02;3.50;99.90
21255;DHT22;10785;50.674;17.954;2024-03-06T02:30:43;3.60;99.90
21255;DHT22;10785;50.674;17.954;2024-03-06T02:33:29;3.50;99.90
21255;DHT22;10785;50.674;17.954;2024-03-06T02:36:12;3.50;99.90
21255;DHT22;10785;50.674;17.954;2024-03-06T02:38:59;3.60;99.90
21255;DHT22;10785;50.674;17.954;2024-03-06T02:41:40;3.60;99.90
21255;DHT22;10785;50.674;17.954;2024-03-06T02:44:27;4.20;84.20
21255;DHT22;10785;50.674;17.954;2024-03-06T02:46:59;3.90;93.10
21255;DHT22;10785;50.674;17.954;2024-03-06T02:49:42;4.50;97.20
21255;DHT22;10785;50.674;17.954;2024-03-06T02:52:21;3.60;99.90
21255;DHT22;10785;50.674;17.954;2024-03-06T02:55:09;3.60;93.40
21255;DHT22;10785;50.674;17.954;2024-03-06T02:57:55;4.00;99.90
21255;DHT22;10785;50.674;17.954;2024-03-06T03:00:41;3.50;99.90
21255;DHT22;10785;50.674;17.954;2024-03-06T03:03:28;4.10;99.90
21255;DHT22;10785;50.674;17.954;2024-03-06T03:06:18;3.60;99.90
21255;DHT22;10785;50.674;17.954;2024-03-06T03:09:07;3.50;99.90
21255;DHT22;10785;50.674;17.954;2024-03-06T03:11:56;3.30;99.90
21255;DHT22;10785;50.674;17.954;2024-03-06T03:14:41;3.20;99.90
21255;DHT22;10785;50.674;17.954;2024-03-06T03:17:20;3.60;99.90
21255;DHT22;10785;50.674;17.954;2024-03-06T03:19:54;3.30;99.90
21255;DHT22;10785;50.674;17.954;2024-03-06T03:22:40;3.20;99.90
21255;DHT22;10785;50.674;17.954;2024-03-06T03:25:28;3.00;99.90
21255;DHT22;10785;50.674;17.954;2024-03-06T03:28:21;2.90;99.90
21255;DHT22;10785;50.674;17.954;2024-03-06T03:31:07;2.90;99.90
21255;DHT22;10785;50.674;17.954;2024-03-06T03:41:58;2.80;99.90
21255;DHT22;10785;50.674;17.954;2024-03-06T04:46:57;1.70;99.90
21255;DHT22;10785;50.674;17.954;2024-03-06T04:49:45;1.80;99.90
21255;DHT22;10785;50.674;17.954;2024-03-06T04:52:35;1.60;99.90
21255;DHT22;10785;50.674;17.954;2024-03-06T04:55:34;1.50;99.90
21255;DHT22;10785;50.674;17.954;2024-03-06T04:58:09;1.40;99.90
21255;DHT22;10785;50.674;17.954;2024-03-06T05:00:40;1.50;99.90
21255;DHT22;10785;50.674;17.954;2024-03-06T05:03:10;1.50;99.90
21255;DHT22;10785;50.674;17.954;2024-03-06T05:05:58;1.40;99.90
21255;DHT22;10785;50.674;17.954;2024-03-06T05:08:45;1.50;99.90
21255;DHT22;10785;50.674;17.954;2024-03-06T05:11:31;1.30;99.90
21255;DHT22;10785;50.674;17.954;2024-03-06T05:14:17;1.20;99.90
21255;DHT22;10785;50.674;17.954;2024-03-06T05:17:04;1.20;99.90
21255;DHT22;10785;50.674;17.954;2024-03-06T05:19:51;1.20;99.90
21255;DHT22;10785;50.674;17.954;2024-03-06T05:22:42;1.20;99.90
21255;DHT22;10785;50.674;17.954;2024-03-06T05:25:29;1.30;99.90
21255;DHT22;10785;50.674;17.954;2024-03-06T05:28:15;1.20;99.90
21255;DHT22;10785;50.674;17.954;2024-03-06T05:31:16;1.20;99.90
21255;DHT22;10785;50.674;17.954;2024-03-06T05:34:03;1.30;99.90
21255;DHT22;10785;50.674;17.954;2024-03-06T05:36:50;1.60;99.90
21255;DHT22;10785;50.674;17.954;2024-03-06T05:39:39;1.40;99.90
21255;DHT22;10785;50.674;17.954;2024-03-06T05:42:30;1.30;99.90
21255;DHT22;10785;50.674;17.954;2024-03-06T05:45:30;1.60;99.90
21255;DHT22;10785;50.674;17.954;2024-03-06T05:48:19;1.50;99.90
21255;DHT22;10785;50.674;17.954;2024-03-06T05:51:06;1.60;99.90
21255;DHT22;10785;50.674;17.954;2024-03-06T05:53:52;1.60;99.90
21255;DHT22;10785;50.674;17.954;2024-03-06T05:56:40;2.20;99.90
21255;DHT22;10785;50.674;17.954;2024-03-06T05:59:27;1.70;99.90
21255;DHT22;10785;50.674;17.954;2024-03-06T06:01:56;1.80;99.90
21255;DHT22;10785;50.674;17.954;2024-03-06T06:04:26;1.90;99.90
21255;DHT22;10785;50.674;17.954;2024-03-06T06:06:55;1.80;99.90
21255;DHT22;10785;50.674;17.954;2024-03-06T06:09:24;1.90;99.90
21255;DHT22;10785;50.674;17.954;2024-03-06T06:11:56;1.90;99.90
21255;DHT22;10785;50.674;17.954;2024-03-06T06:14:25;2.40;99.90
21255;DHT22;10785;50.674;17.954;2024-03-06T06:16:57;2.00;99.90
21255;DHT22;10785;50.674;17.954;2024-03-06T06:19:26;2.10;99.90
21255;DHT22;10785;50.674;17.954;2024-03-06T06:21:56;2.20;99.90
21255;DHT22;10785;50.674;17.954;2024-03-06T06:24:25;2.40;99.90
21255;DHT22;10785;50.674;17.954;2024-03-06T06:26:56;2.30;99.90
21255;DHT22;10785;50.674;17.954;2024-03-06T06:29:31;2.20;99.90
21255;DHT22;10785;50.674;17.954;2024-03-06T06:32:13;2.30;99.90
21255;DHT22;10785;50.674;17.954;2024-03-06T06:34:51;3.70;99.90
21255;DHT22;10785;50.674;17.954;2024-03-06T06:37:22;2.60;99.90
21255;DHT22;10785;50.674;17.954;2024-03-06T06:39:51;2.60;99.90
21255;DHT22;10785;50.674;17.954;2024-03-06T06:42:24;2.60;99.90
21255;DHT22;10785;50.674;17.954;2024-03-06T06:44:54;2.60;89.80
21255;DHT22;10785;50.674;17.954;2024-03-06T06:47:25;2.80;33.50
21255;DHT22;10785;50.674;17.954;2024-03-06T06:49:54;2.80;1.00
21255;DHT22;10785;50.674;17.954;2024-03-06T06:52:24;2.80;1.00
21255;DHT22;10785;50.674;17.954;2024-03-06T06:54:58;2.90;1.00
21255;DHT22;10785;50.674;17.954;2024-03-06T06:57:33;3.00;1.00
21255;DHT22;10785;50.674;17.954;2024-03-06T07:00:05;3.10;1.00
21255;DHT22;10785;50.674;17.954;2024-03-06T07:02:41;3.00;99.90
21255;DHT22;10785;50.674;17.954;2024-03-06T07:05:14;3.20;99.90
21255;DHT22;10785;50.674;17.954;2024-03-06T07:07:44;3.30;99.90
21255;DHT22;10785;50.674;17.954;2024-03-06T07:10:21;3.40;1.00
21255;DHT22;10785;50.674;17.954;2024-03-06T07:12:59;3.40;1.00
21255;DHT22;10785;50.674;17.954;2024-03-06T07:15:35;3.60;1.00
21255;DHT22;10785;50.674;17.954;2024-03-06T07:18:06;3.60;99.90
21255;DHT22;10785;50.674;17.954;2024-03-06T07:20:35;3.60;1.00
21255;DHT22;10785;50.674;17.954;2024-03-06T07:23:07;3.60;1.00
21255;DHT22;10785;50.674;17.954;2024-03-06T07:25:38;3.60;85.00
21255;DHT22;10785;50.674;17.954;2024-03-06T07:28:10;3.40;99.90
21255;DHT22;10785;50.674;17.954;2024-03-06T07:30:39;3.50;1.00
21255;DHT22;10785;50.674;17.954;2024-03-06T07:33:08;3.50;1.00
21255;DHT22;10785;50.674;17.954;2024-03-06T07:35:38;3.40;1.00
21255;DHT22;10785;50.674;17.954;2024-03-06T07:38:10;3.40;1.00
21255;DHT22;10785;50.674;17.954;2024-03-06T07:40:39;2.10;1.00
21255;DHT22;10785;50.674;17.954;2024-03-06T07:43:14;3.50;1.00
21255;DHT22;10785;50.674;17.954;2024-03-06T07:45:44;3.60;1.00
21255;DHT22;10785;50.674;17.954;2024-03-06T07:48:15;3.70;1.00
21255;DHT22;10785;50.674;17.954;2024-03-06T07:50:48;3.90;99.90
21255;DHT22;10785;50.674;17.954;2024-03-06T07:53:22;3.80;1.00
21255;DHT22;10785;50.674;17.954;2024-03-06T07:55:55;3.90;1.00
21255;DHT22;10785;50.674;17.954;2024-03-06T07:58:34;3.90;99.90
21255;DHT22;10785;50.674;17.954;2024-03-06T08:01:14;4.80;1.00
21255;DHT22;10785;50.674;17.954;2024-03-06T08:03:48;4.00;1.00
21255;DHT22;10785;50.674;17.954;2024-03-06T08:06:25;4.20;99.90
21255;DHT22;10785;50.674;17.954;2024-03-06T08:09:00;4.30;1.00
21255;DHT22;10785;50.674;17.954;2024-03-06T08:11:32;4.20;1.00
21255;DHT22;10785;50.674;17.954;2024-03-06T08:14:06;4.30;99.90
21255;DHT22;10785;50.674;17.954;2024-03-06T08:16:36;5.40;99.90
21255;DHT22;10785;50.674;17.954;2024-03-06T08:19:09;4.60;99.90
21255;DHT22;10785;50.674;17.954;2024-03-06T08:21:40;4.30;99.90
21255;DHT22;10785;50.674;17.954;2024-03-06T08:24:11;4.50;99.90
21255;DHT22;10785;50.674;17.954;2024-03-06T08:26:43;4.50;99.90
21255;DHT22;10785;50.674;17.954;2024-03-06T08:29:18;4.60;1.00
21255;DHT22;10785;50.674;17.954;2024-03-06T08:31:50;4.60;99.90
21255;DHT22;10785;50.674;17.954;2024-03-06T08:34:21;4.60;1.00
21255;DHT22;10785;50.674;17.954;2024-03-06T08:36:56;4.40;1.00
21255;DHT22;10785;50.674;17.954;2024-03-06T08:39:29;4.60;99.90
21255;DHT22;10785;50.674;17.954;2024-03-06T08:42:05;4.40;99.90
21255;DHT22;10785;50.674;17.954;2024-03-06T08:44:52;4.20;1.00
21255;DHT22;10785;50.674;17.954;2024-03-06T08:47:33;4.30;1.00
21255;DHT22;10785;50.674;17.954;2024-03-06T08:50:09;4.50;1.00
21255;DHT22;10785;50.674;17.954;2024-03-06T08:52:46;4.60;98.30
21255;DHT22;10785;50.674;17.954;2024-03-06T08:55:21;4.80;1.00
21255;DHT22;10785;50.674;17.954;2024-03-06T08:57:50;5.10;1.00
21255;DHT22;10785;50.674;17.954;2024-03-06T09:00:22;5.30;1.00
21255;DHT22;10785;50.674;17.954;2024-03-06T09:02:53;5.40;99.90
21255;DHT22;10785;50.674;17.954;2024-03-06T09:05:22;5.60;99.90
21255;DHT22;10785;50.674;17.954;2024-03-06T09:07:51;5.50;99.90
21255;DHT22;10785;50.674;17.954;2024-03-06T09:10:20;5.40;99.90
21255;DHT22;10785;50.674;17.954;2024-03-06T09:12:49;5.50;59.70
21255;DHT22;10785;50.674;17.954;2024-03-06T09:15:18;5.40;85.70
21255;DHT22;10785;50.674;17.954;2024-03-06T09:17:49;6.20;99.90
21255;DHT22;10785;50.674;17.954;2024-03-06T09:20:18;5.70;1.00
21255;DHT22;10785;50.674;17.954;2024-03-06T09:22:47;5.60;1.00
21255;DHT22;10785;50.674;17.954;2024-03-06T09:25:16;5.40;1.00
21255;DHT22;10785;50.674;17.954;2024-03-06T09:27:46;5.50;1.00
21255;DHT22;10785;50.674;17.954;2024-03-06T09:30:15;5.40;1.00
21255;DHT22;10785;50.674;17.954;2024-03-06T09:32:45;5.30;1.00
21255;DHT22;10785;50.674;17.954;2024-03-06T09:35:18;6.10;1.00
21255;DHT22;10785;50.674;17.954;2024-03-06T09:37:51;5.60;1.00
21255;DHT22;10785;50.674;17.954;2024-03-06T09:40:22;5.30;1.00
21255;DHT22;10785;50.674;17.954;2024-03-06T09:42:52;5.80;1.00
21255;DHT22;10785;50.674;17.954;2024-03-06T09:45:23;5.70;1.00
21255;DHT22;10785;50.674;17.954;2024-03-06T09:47:53;5.80;1.00
21255;DHT22;10785;50.674;17.954;2024-03-06T09:50:25;5.70;1.00
21255;DHT22;10785;50.674;17.954;2024-03-06T09:52:57;5.60;1.00
21255;DHT22;10785;50.674;17.954;2024-03-06T09:55:30;5.80;1.00
21255;DHT22;10785;50.674;17.954;2024-03-06T09:58:01;5.90;1.00
21255;DHT22;10785;50.674;17.954;2024-03-06T10:00:33;6.00;1.00
21255;DHT22;10785;50.674;17.954;2024-03-06T10:03:05;6.70;1.00
21255;DHT22;10785;50.674;17.954;2024-03-06T10:05:39;6.30;99.90
21255;DHT22;10785;50.674;17.954;2024-03-06T10:08:12;6.40;99.90
21255;DHT22;10785;50.674;17.954;2024-03-06T10:10:44;6.40;99.90
21255;DHT22;10785;50.674;17.954;2024-03-06T10:13:16;6.10;99.90
21255;DHT22;10785;50.674;17.954;2024-03-06T10:15:56;6.40;99.90
21255;DHT22;10785;50.674;17.954;2024-03-06T10:18:27;6.30;99.90
21255;DHT22;10785;50.674;17.954;2024-03-06T10:20:57;6.20;99.90
21255;DHT22;10785;50.674;17.954;2024-03-06T10:23:28;6.00;99.90
21255;DHT22;10785;50.674;17.954;2024-03-06T10:25:57;6.30;99.90
21255;DHT22;10785;50.674;17.954;2024-03-06T10:28:28;6.30;99.90
21255;DHT22;10785;50.674;17.954;2024-03-06T10:31:04;6.40;99.90
21255;DHT22;10785;50.674;17.954;2024-03-06T10:33:37;6.40;99.90
21255;DHT22;10785;50.674;17.954;2024-03-06T10:36:12;6.50;99.90
21255;DHT22;10785;50.674;17.954;2024-03-06T10:38:44;6.40;99.90
21255;DHT22;10785;50.674;17.954;2024-03-06T10:41:15;6.60;99.90
21255;DHT22;10785;50.674;17.954;2024-03-06T10:43:59;7.00;99.90
21255;DHT22;10785;50.674;17.954;2024-03-06T10:46:37;6.60;99.90
21255;DHT22;10785;50.674;17.954;2024-03-06T10:49:09;6.50;99.90
21255;DHT22;10785;50.674;17.954;2024-03-06T10:51:42;6.90;99.90
21255;DHT22;10785;50.674;17.954;2024-03-06T10:54:27;6.40;99.90
21255;DHT22;10785;50.674;17.954;2024-03-06T10:57:02;6.40;99.90
21255;DHT22;10785;50.674;17.954;2024-03-06T10:59:35;6.50;99.90
21255;DHT22;10785;50.674;17.954;2024-03-06T11:02:06;6.50;99.90
21255;DHT22;10785;50.674;17.954;2024-03-06T11:04:36;6.50;99.90
21255;DHT22;10785;50.674;17.954;2024-03-06T11:07:09;6.90;99.90
21255;DHT22;10785;50.674;17.954;2024-03-06T11:09:42;6.60;99.90
21255;DHT22;10785;50.674;17.954;2024-03-06T11:12:11;6.40;99.90
21255;DHT22;10785;50.674;17.954;2024-03-06T11:14:40;6.40;99.90
21255;DHT22;10785;50.674;17.954;2024-03-06T11:17:10;6.60;99.90
21255;DHT22;10785;50.674;17.954;2024-03-06T11:20:08;6.30;99.90
21255;DHT22;10785;50.674;17.954;2024-03-06T11:23:04;6.20;99.90
21255;DHT22;10785;50.674;17.954;2024-03-06T11:26:03;6.10;99.90
21255;DHT22;10785;50.674;17.954;2024-03-06T11:28:33;6.10;99.90
21255;DHT22;10785;50.674;17.954;2024-03-06T11:31:11;6.20;99.90
21255;DHT22;10785;50.674;17.954;2024-03-06T11:33:46;6.10;99.90
21255;DHT22;10785;50.674;17.954;2024-03-06T11:36:22;6.10;99.90
21255;DHT22;10785;50.674;17.954;2024-03-06T11:38:58;5.90;99.90
21255;DHT22;10785;50.674;17.954;2024-03-06T11:41:37;6.00;99.90
21255;DHT22;10785;50.674;17.954;2024-03-06T11:44:20;6.00;99.90
21255;DHT22;10785;50.674;17.954;2024-03-06T11:46:59;6.20;99.90
21255;DHT22;10785;50.674;17.954;2024-03-06T11:49:31;6.00;99.90
21255;DHT22;10785;50.674;17.954;2024-03-06T11:52:05;6.00;99.90
21255;DHT22;10785;50.674;17.954;2024-03-06T11:54:40;5.80;99.90
21255;DHT22;10785;50.674;17.954;2024-03-06T11:57:10;5.70;99.90
21255;DHT22;10785;50.674;17.954;2024-03-06T11:59:47;5.80;99.90
21255;DHT22;10785;50.674;17.954;2024-03-06T12:02:19;5.80;99.90
21255;DHT22;10785;50.674;17.954;2024-03-06T12:04:50;5.80;99.90
21255;DHT22;10785;50.674;17.954;2024-03-06T12:07:20;5.70;99.90
21255;DHT22;10785;50.674;17.954;2024-03-06T12:09:52;5.80;99.90
21255;DHT22;10785;50.674;17.954;2024-03-06T12:12:24;5.90;99.90
21255;DHT22;10785;50.674;17.954;2024-03-06T12:15:04;5.60;1.00
21255;DHT22;10785;50.674;17.954;2024-03-06T12:17:42;5.80;99.90
21255;DHT22;10785;50.674;17.954;2024-03-06T12:20:15;5.80;99.90
21255;DHT22;10785;50.674;17.954;2024-03-06T12:22:48;6.00;99.90
21255;DHT22;10785;50.674;17.954;2024-03-06T12:25:21;5.60;99.90
21255;DHT22;10785;50.674;17.954;2024-03-06T12:27:53;5.60;99.90
21255;DHT22;10785;50.674;17.954;2024-03-06T12:30:23;5.40;1.00
21255;DHT22;10785;50.674;17.954;2024-03-06T12:32:57;5.50;99.90
21255;DHT22;10785;50.674;17.954;2024-03-06T12:35:28;5.50;99.90
21255;DHT22;10785;50.674;17.954;2024-03-06T12:37:58;5.50;99.90
21255;DHT22;10785;50.674;17.954;2024-03-06T12:40:30;5.60;99.90
21255;DHT22;10785;50.674;17.954;2024-03-06T12:43:03;5.70;99.90
21255;DHT22;10785;50.674;17.954;2024-03-06T12:45:34;5.50;99.90
21255;DHT22;10785;50.674;17.954;2024-03-06T12:48:03;5.80;99.90
21255;DHT22;10785;50.674;17.954;2024-03-06T12:50:34;5.70;99.90
21255;DHT22;10785;50.674;17.954;2024-03-06T12:53:06;5.50;99.90
21255;DHT22;10785;50.674;17.954;2024-03-06T12:55:43;5.70;99.90
21255;DHT22;10785;50.674;17.954;2024-03-06T12:58:18;5.40;99.90
21255;DHT22;10785;50.674;17.954;2024-03-06T13:00:49;5.70;99.90
21255;DHT22;10785;50.674;17.954;2024-03-06T13:03:22;5.40;99.90
21255;DHT22;10785;50.674;17.954;2024-03-06T13:05:54;5.40;99.90
21255;DHT22;10785;50.674;17.954;2024-03-06T13:08:26;5.30;99.90
21255;DHT22;10785;50.674;17.954;2024-03-06T13:10:58;5.30;99.90
21255;DHT22;10785;50.674;17.954;2024-03-06T13:13:32;5.20;1.00
21255;DHT22;10785;50.674;17.954;2024-03-06T13:16:05;5.20;1.00
21255;DHT22;10785;50.674;17.954;2024-03-06T13:18:38;5.10;1.00
21255;DHT22;10785;50.674;17.954;2024-03-06T13:21:09;5.90;1.00
21255;DHT22;10785;50.674;17.954;2024-03-06T13:23:46;5.10;1.00
21255;DHT22;10785;50.674;17.954;2024-03-06T13:26:20;5.00;1.00
21255;DHT22;10785;50.674;17.954;2024-03-06T13:28:49;5.00;1.00
21255;DHT22;10785;50.674;17.954;2024-03-06T13:31:20;5.20;1.00
21255;DHT22;10785;50.674;17.954;2024-03-06T13:33:49;5.20;1.00
21255;DHT22;10785;50.674;17.954;2024-03-06T13:36:19;4.80;1.00
21255;DHT22;10785;50.674;17.954;2024-03-06T13:38:52;4.70;99.90
21255;DHT22;10785;50.674;17.954;2024-03-06T13:41:33;4.70;99.90
21255;DHT22;10785;50.674;17.954;2024-03-06T13:44:18;4.80;4.30
21255;DHT22;10785;50.674;17.954;2024-03-06T13:46:52;5.70;1.00
21255;DHT22;10785;50.674;17.954;2024-03-06T13:49:39;4.60;1.00
21255;DHT22;10785;50.674;17.954;2024-03-06T13:52:19;4.70;99.90
21255;DHT22;10785;50.674;17.954;2024-03-06T13:55:06;4.80;21.40
21255;DHT22;10785;50.674;17.954;2024-03-06T13:57:51;4.60;1.00
21255;DHT22;10785;50.674;17.954;2024-03-06T14:00:28;4.60;99.90
21255;DHT22;10785;50.674;17.954;2024-03-06T14:03:07;4.60;1.00
21255;DHT22;10785;50.674;17.954;2024-03-06T14:05:46;4.50;1.00
21255;DHT22;10785;50.674;17.954;2024-03-06T14:08:25;4.60;1.00
21255;DHT22;10785;50.674;17.954;2024-03-06T14:11:02;4.70;1.00
21255;DHT22;10785;50.674;17.954;2024-03-06T14:13:42;4.50;1.00
21255;DHT22;10785;50.674;17.954;2024-03-06T14:16:26;4.50;1.00
21255;DHT22;10785;50.674;17.954;2024-03-06T14:19:21;4.50;1.00
21255;DHT22;10785;50.674;17.954;2024-03-06T14:22:10;4.40;1.00
21255;DHT22;10785;50.674;17.954;2024-03-06T14:24:57;4.40;99.90
21255;DHT22;10785;50.674;17.954;2024-03-06T14:27:42;4.50;1.00
21255;DHT22;10785;50.674;17.954;2024-03-06T14:30:32;5.50;1.00
21255;DHT22;10785;50.674;17.954;2024-03-06T14:33:18;4.30;1.00
21255;DHT22;10785;50.674;17.954;2024-03-06T14:36:18;4.30;1.00
21255;DHT22;10785;50.674;17.954;2024-03-06T14:39:04;5.40;1.00
21255;DHT22;10785;50.674;17.954;2024-03-06T14:41:49;4.50;1.00
21255;DHT22;10785;50.674;17.954;2024-03-06T14:44:39;4.40;1.00
21255;DHT22;10785;50.674;17.954;2024-03-06T14:47:25;4.40;1.00
21255;DHT22;10785;50.674;17.954;2024-03-06T14:50:09;4.40;99.90
21255;DHT22;10785;50.674;17.954;2024-03-06T14:52:53;4.40;1.00
21255;DHT22;10785;50.674;17.954;2024-03-06T14:55:42;4.40;1.00
21255;DHT22;10785;50.674;17.954;2024-03-06T14:58:31;4.50;46.70
21255;DHT22;10785;50.674;17.954;2024-03-06T15:01:21;4.50;1.00
21255;DHT22;10785;50.674;17.954;2024-03-06T15:04:10;4.40;1.00
21255;DHT22;10785;50.674;17.954;2024-03-06T15:06:58;4.50;1.00
21255;DHT22;10785;50.674;17.954;2024-03-06T15:09:34;4.70;99.90
21255;DHT22;10785;50.674;17.954;2024-03-06T15:12:21;4.70;1.00
21255;DHT22;10785;50.674;17.954;2024-03-06T15:15:37;4.40;1.00
21255;DHT22;10785;50.674;17.954;2024-03-06T15:18:37;4.10;1.00
21255;DHT22;10785;50.674;17.954;2024-03-06T15:21:33;4.10;99.90
21255;DHT22;10785;50.674;17.954;2024-03-06T15:24:25;4.20;99.90
21255;DHT22;10785;50.674;17.954;2024-03-06T15:27:58;4.00;99.90
21255;DHT22;10785;50.674;17.954;2024-03-06T15:31:18;4.20;99.90
21255;DHT22;10785;50.674;17.954;2024-03-06T15:34:19;4.60;99.90
21255;DHT22;10785;50.674;17.954;2024-03-06T15:37:16;4.10;99.90
21255;DHT22;10785;50.674;17.954;2024-03-06T15:40:07;4.10;99.90
21255;DHT22;10785;50.674;17.954;2024-03-06T15:42:55;4.00;99.90
21255;DHT22;10785;50.674;17.954;2024-03-06T15:45:39;4.10;99.90
21255;DHT22;10785;50.674;17.954;2024-03-06T15:48:23;4.60;99.90
21255;DHT22;10785;50.674;17.954;2024-03-06T15:51:06;4.20;99.90
21255;DHT22;10785;50.674;17.954;2024-03-06T15:53:59;4.10;99.90
21255;DHT22;10785;50.674;17.954;2024-03-06T15:56:42;4.00;99.90
21255;DHT22;10785;50.674;17.954;2024-03-06T15:59:28;5.00;99.90
21255;DHT22;10785;50.674;17.954;2024-03-06T16:02:21;4.10;99.90
21255;DHT22;10785;50.674;17.954;2024-03-06T16:05:01;4.00;99.90
21255;DHT22;10785;50.674;17.954;2024-03-06T16:10:46;4.90;99.90
21255;DHT22;10785;50.674;17.954;2024-03-06T16:13:37;4.10;99.90
21255;DHT22;10785;50.674;17.954;2024-03-06T16:16:26;4.20;99.90
21255;DHT22;10785;50.674;17.954;2024-03-06T16:19:13;4.10;99.90
21255;DHT22;10785;50.674;17.954;2024-03-06T16:22:04;4.30;99.90
21255;DHT22;10785;50.674;17.954;2024-03-06T16:24:53;4.10;99.90
21255;DHT22;10785;50.674;17.954;2024-03-06T16:27:44;4.40;99.90
21255;DHT22;10785;50.674;17.954;2024-03-06T16:30:30;4.90;99.90
21255;DHT22;10785;50.674;17.954;2024-03-06T16:33:19;4.20;99.90
21255;DHT22;10785;50.674;17.954;2024-03-06T16:36:07;4.30;99.90
21255;DHT22;10785;50.674;17.954;2024-03-06T16:38:56;4.30;99.90
21255;DHT22;10785;50.674;17.954;2024-03-06T16:41:46;4.40;99.90
21255;DHT22;10785;50.674;17.954;2024-03-06T16:44:57;4.70;99.90
21255;DHT22;10785;50.674;17.954;2024-03-06T16:47:48;4.30;99.90
21255;DHT22;10785;50.674;17.954;2024-03-06T16:50:26;5.00;99.90
21255;DHT22;10785;50.674;17.954;2024-03-06T16:53:14;4.40;99.90
21255;DHT22;10785;50.674;17.954;2024-03-06T16:56:05;4.70;99.90
21255;DHT22;10785;50.674;17.954;2024-03-06T16:58:37;4.30;99.90
21255;DHT22;10785;50.674;17.954;2024-03-06T17:01:08;4.40;99.90
21255;DHT22;10785;50.674;17.954;2024-03-06T17:03:38;4.30;99.90
21255;DHT22;10785;50.674;17.954;2024-03-06T17:06:07;4.30;99.90
21255;DHT22;10785;50.674;17.954;2024-03-06T17:08:36;4.30;99.90
21255;DHT22;10785;50.674;17.954;2024-03-06T17:11:08;4.30;99.90
21255;DHT22;10785;50.674;17.954;2024-03-06T17:13:39;4.30;99.90
21255;DHT22;10785;50.674;17.954;2024-03-06T17:16:10;4.50;99.90
21255;DHT22;10785;50.674;17.954;2024-03-06T17:18:40;4.30;99.90
21255;DHT22;10785;50.674;17.954;2024-03-06T17:21:11;4.40;99.90
21255;DHT22;10785;50.674;17.954;2024-03-06T17:23:42;4.10;99.90
21255;DHT22;10785;50.674;17.954;2024-03-06T17:26:11;4.30;99.90
21255;DHT22;10785;50.674;17.954;2024-03-06T17:28:41;4.40;99.90
21255;DHT22;10785;50.674;17.954;2024-03-06T17:31:20;4.50;99.90
21255;DHT22;10785;50.674;17.954;2024-03-06T17:33:50;4.20;99.90
21255;DHT22;10785;50.674;17.954;2024-03-06T17:36:19;5.30;99.90
21255;DHT22;10785;50.674;17.954;2024-03-06T17:38:47;4.40;99.90
21255;DHT22;10785;50.674;17.954;2024-03-06T17:41:16;4.40;99.90
21255;DHT22;10785;50.674;17.954;2024-03-06T17:43:45;5.00;99.90
21255;DHT22;10785;50.674;17.954;2024-03-06T17:46:14;4.40;99.90
21255;DHT22;10785;50.674;17.954;2024-03-06T17:48:45;4.40;99.90
21255;DHT22;10785;50.674;17.954;2024-03-06T17:51:16;4.40;99.90
21255;DHT22;10785;50.674;17.954;2024-03-06T17:53:46;4.50;99.90
21255;DHT22;10785;50.674;17.954;2024-03-06T17:56:16;4.40;99.90
21255;DHT22;10785;50.674;17.954;2024-03-06T17:58:47;4.40;99.90
21255;DHT22;10785;50.674;17.954;2024-03-06T18:01:20;4.50;99.90